Time,TemperatureF,DewpointF,PressureIn,WindDirection,WindDirectionDegrees,WindSpeedMPH,WindSpeedGustMPH,Humidity,HourlyPrecipIn,Conditions,Clouds,dailyrainin,SoftwareType,DateUTC
2014-01-21 00:00:00,25.0,15.9,30.34,West,259,4.0,4.0,68,0.00,,,0.00,Wunderground v.1.15,2014-01-21 07:00:00,
2014-01-21 00:10:00,23.8,15.4,30.34,WSW,252,4.0,4.0,70,0.00,,,0.00,Wunderground v.1.15,2014-01-21 07:10:00,
2014-01-21 00:19:00,23.6,15.9,30.34,West,267,4.0,4.0,72,0.00,,,0.00,Wunderground v.1.15,2014-01-21 07:19:00,
2014-01-21 00:29:00,23.8,16.1,30.33,WSW,246,4.0,5.0,72,0.00,,,0.00,Wunderground v.1.15,2014-01-21 07:29:00,
2014-01-21 00:40:00,23.7,16.0,30.33,SW,231,4.0,11.0,72,0.00,,,0.00,Wunderground v.1.15,2014-01-21 07:40:00,
2014-01-21 00:49:00,23.4,16.0,30.33,West,269,4.0,4.0,73,0.00,,,0.00,Wunderground v.1.15,2014-01-21 07:49:00,
2014-01-21 01:00:00,23.2,15.8,30.33,WSW,256,3.0,3.0,73,0.00,,,0.00,Wunderground v.1.15,2014-01-21 08:00:00,
2014-01-21 01:09:00,23.0,15.9,30.33,WSW,258,3.0,3.0,74,0.00,,,0.00,Wunderground v.1.15,2014-01-21 08:09:00,
2014-01-21 01:19:00,22.9,16.2,30.33,WNW,282,3.0,3.0,75,0.00,,,0.00,Wunderground v.1.15,2014-01-21 08:19:00,
2014-01-21 01:29:00,23.3,15.6,30.32,WSW,257,2.0,2.0,72,0.00,,,0.00,Wunderground v.1.15,2014-01-21 08:29:00,
2014-01-21 01:34:00,23.2,15.8,30.32,West,263,2.0,6.0,73,0.00,,,0.00,Wunderground v.1.15,2014-01-21 08:34:00,
2014-01-21 01:44:00,22.9,15.5,30.32,WNW,287,2.0,6.0,73,0.00,,,0.00,Wunderground v.1.15,2014-01-21 08:44:00,
2014-01-21 01:54:00,22.5,15.1,30.31,West,280,2.0,6.0,73,0.00,,,0.00,Wunderground v.1.15,2014-01-21 08:54:00,
2014-01-21 01:59:00,22.4,15.4,30.31,WNW,282,2.0,2.0,74,0.00,,,0.00,Wunderground v.1.15,2014-01-21 08:59:00,
2014-01-21 02:09:00,22.5,15.5,30.31,WNW,300,3.0,3.0,74,0.00,,,0.00,Wunderground v.1.15,2014-01-21 09:09:00,
2014-01-21 02:19:00,21.8,14.8,30.31,NW,308,3.0,3.0,74,0.00,,,0.00,Wunderground v.1.15,2014-01-21 09:19:00,
2014-01-21 02:24:00,22.2,15.8,30.31,NW,305,3.0,3.0,76,0.00,,,0.00,Wunderground v.1.15,2014-01-21 09:24:00,
2014-01-21 02:39:00,23.1,15.7,30.30,NW,311,3.0,4.0,73,0.00,,,0.00,Wunderground v.1.15,2014-01-21 09:39:00,
2014-01-21 02:49:00,24.4,16.7,30.30,NW,305,3.0,4.0,72,0.00,,,0.00,Wunderground v.1.15,2014-01-21 09:49:00,
2014-01-21 02:59:00,25.0,17.2,30.29,NW,315,2.0,2.0,72,0.00,,,0.00,Wunderground v.1.15,2014-01-21 09:59:00,
2014-01-21 03:05:00,25.3,16.5,30.28,WNW,295,2.0,2.0,69,0.00,,,0.00,Wunderground v.1.15,2014-01-21 10:05:00,
2014-01-21 03:10:00,24.0,15.6,30.28,NW,304,2.0,2.0,70,0.00,,,0.00,Wunderground v.1.15,2014-01-21 10:10:00,
2014-01-21 03:20:00,25.4,17.3,30.28,NNW,345,3.0,3.0,71,0.00,,,0.00,Wunderground v.1.15,2014-01-21 10:20:00,
2014-01-21 03:30:00,26.0,15.8,30.27,NW,321,2.0,2.0,65,0.00,,,0.00,Wunderground v.1.15,2014-01-21 10:30:00,
2014-01-21 03:40:00,26.3,16.8,30.27,NNW,342,2.0,2.0,67,0.00,,,0.00,Wunderground v.1.15,2014-01-21 10:40:00,
2014-01-21 03:49:00,26.6,14.9,30.26,NW,322,1.0,1.0,61,0.00,,,0.00,Wunderground v.1.15,2014-01-21 10:49:00,
2014-01-21 03:55:00,25.8,16.0,30.25,NW,321,0.0,4.0,66,0.00,,,0.00,Wunderground v.1.15,2014-01-21 10:55:00,
2014-01-21 04:00:00,25.9,16.4,30.25,NNE,29,0.0,1.0,67,0.00,,,0.00,Wunderground v.1.15,2014-01-21 11:00:00,
2014-01-21 04:10:00,26.9,16.3,30.24,ENE,77,1.0,1.0,64,0.00,,,0.00,Wunderground v.1.15,2014-01-21 11:10:00,
2014-01-21 04:19:00,25.8,14.9,30.24,SSW,207,0.0,1.0,63,0.00,,,0.00,Wunderground v.1.15,2014-01-21 11:19:00,
2014-01-21 04:29:00,23.6,12.5,30.24,WNW,297,2.0,2.0,62,0.00,,,0.00,Wunderground v.1.15,2014-01-21 11:29:00,
2014-01-21 04:35:00,23.3,11.4,30.24,West,276,2.0,5.0,60,0.00,,,0.00,Wunderground v.1.15,2014-01-21 11:35:00,
2014-01-21 04:44:00,23.8,12.3,30.24,WSW,255,2.0,5.0,61,0.00,,,0.00,Wunderground v.1.15,2014-01-21 11:44:00,
2014-01-21 04:54:00,25.2,10.0,30.23,WNW,298,5.0,8.0,52,0.00,,,0.00,Wunderground v.1.15,2014-01-21 11:54:00,
2014-01-21 04:59:00,26.2,10.1,30.23,WNW,297,8.0,9.0,50,0.00,,,0.00,Wunderground v.1.15,2014-01-21 11:59:00,
2014-01-21 05:09:00,28.4,8.7,30.22,WNW,298,8.0,8.0,43,0.00,,,0.00,Wunderground v.1.15,2014-01-21 12:09:00,
2014-01-21 05:19:00,28.6,7.8,30.21,West,278,9.0,9.0,41,0.00,,,0.00,Wunderground v.1.15,2014-01-21 12:19:00,
2014-01-21 05:29:00,33.9,6.4,30.21,WNW,284,10.0,10.0,31,0.00,,,0.00,Wunderground v.1.15,2014-01-21 12:29:00,
2014-01-21 05:39:00,30.8,6.3,30.21,WNW,285,9.0,9.0,35,0.00,,,0.00,Wunderground v.1.15,2014-01-21 12:39:00,
2014-01-21 05:49:00,30.2,5.2,30.21,WNW,287,7.0,8.0,34,0.00,,,0.00,Wunderground v.1.15,2014-01-21 12:49:00,
2014-01-21 05:59:00,30.5,4.1,30.21,WNW,295,7.0,9.0,32,0.00,,,0.00,Wunderground v.1.15,2014-01-21 12:59:00,
2014-01-21 06:09:00,31.9,3.2,30.20,WNW,291,8.0,10.0,29,0.00,,,0.00,Wunderground v.1.15,2014-01-21 13:09:00,
2014-01-21 06:19:00,31.9,3.2,30.20,WNW,289,9.0,10.0,29,0.00,,,0.00,Wunderground v.1.15,2014-01-21 13:19:00,
2014-01-21 06:29:00,31.2,2.6,30.21,WNW,302,9.0,9.0,29,0.00,,,0.00,Wunderground v.1.15,2014-01-21 13:29:00,
2014-01-21 06:39:00,31.3,2.7,30.21,WNW,285,8.0,8.0,29,0.00,,,0.00,Wunderground v.1.15,2014-01-21 13:39:00,
2014-01-21 06:49:00,29.8,2.1,30.20,NW,308,8.0,15.0,30,0.00,,,0.00,Wunderground v.1.15,2014-01-21 13:49:00,
2014-01-21 06:54:00,29.9,2.2,30.20,WNW,284,8.0,15.0,30,0.00,,,0.00,Wunderground v.1.15,2014-01-21 13:54:00,
2014-01-21 06:59:00,30.6,2.1,30.20,WNW,291,9.0,9.0,29,0.00,,,0.00,Wunderground v.1.15,2014-01-21 13:59:00,
2014-01-21 07:09:00,36.1,-1.2,30.20,WNW,300,8.0,9.0,20,0.00,,,0.00,Wunderground v.1.15,2014-01-21 14:09:00,
2014-01-21 07:19:00,42.9,-4.7,30.20,WNW,301,11.0,11.0,13,0.00,,,0.00,Wunderground v.1.15,2014-01-21 14:19:00,
2014-01-21 07:29:00,40.7,-4.9,30.20,NNW,330,8.0,8.0,14,0.00,,,0.00,Wunderground v.1.15,2014-01-21 14:29:00,
2014-01-21 07:39:00,38.5,-2.6,30.20,West,277,6.0,12.0,17,0.00,,,0.00,Wunderground v.1.15,2014-01-21 14:39:00,
2014-01-21 07:49:00,38.1,-1.8,30.19,West,280,7.0,12.0,18,0.00,,,0.00,Wunderground v.1.15,2014-01-21 14:49:00,
2014-01-21 07:59:00,43.2,-2.9,30.19,WNW,288,12.0,15.0,14,0.00,,,0.00,Wunderground v.1.15,2014-01-21 14:59:00,
2014-01-21 08:05:00,45.1,-2.9,30.18,WNW,290,14.0,15.0,13,0.00,,,0.00,Wunderground v.1.15,2014-01-21 15:05:00,
2014-01-21 08:15:00,46.5,-5.3,30.18,WNW,297,14.0,19.0,11,0.00,,,0.00,Wunderground v.1.15,2014-01-21 15:15:00,
2014-01-21 08:25:00,49.0,-7.5,30.17,WNW,283,17.0,21.0,9,0.00,,,0.00,Wunderground v.1.15,2014-01-21 15:25:00,
2014-01-21 08:35:00,49.0,-7.5,30.18,WNW,284,14.0,17.0,9,0.00,,,0.00,Wunderground v.1.15,2014-01-21 15:35:00,
2014-01-21 08:40:00,49.5,-7.1,30.18,West,281,13.0,14.0,9,0.00,,,0.00,Wunderground v.1.15,2014-01-21 15:40:00,
2014-01-21 08:50:00,49.8,-9.3,30.17,West,271,11.0,14.0,8,0.00,,,0.00,Wunderground v.1.15,2014-01-21 15:50:00,
2014-01-21 09:00:00,51.3,-8.2,30.17,West,276,13.0,13.0,8,0.00,,,0.00,Wunderground v.1.15,2014-01-21 16:00:00,
2014-01-21 09:09:00,52.8,-9.8,30.18,West,278,13.0,15.0,7,0.00,,,0.00,Wunderground v.1.15,2014-01-21 16:09:00,
2014-01-21 09:19:00,53.6,-9.2,30.17,WNW,283,12.0,12.0,7,0.00,,,0.00,Wunderground v.1.15,2014-01-21 16:19:00,
2014-01-21 09:25:00,54.4,-11.7,30.17,West,277,12.0,12.0,6,0.00,,,0.00,Wunderground v.1.15,2014-01-21 16:25:00,
2014-01-21 09:34:00,55.9,-14.3,30.17,West,275,15.0,17.0,5,0.00,,,0.00,Wunderground v.1.15,2014-01-21 16:34:00,
2014-01-21 09:44:00,57.0,-17.9,30.17,WNW,284,18.0,25.0,4,0.00,,,0.00,Wunderground v.1.15,2014-01-21 16:44:00,
2014-01-21 09:55:00,57.6,-23.0,30.17,WNW,285,19.0,23.0,3,0.00,,,0.00,Wunderground v.1.15,2014-01-21 16:55:00,
2014-01-21 10:00:00,58.2,-17.0,30.17,West,278,18.0,18.0,4,0.00,,,0.00,Wunderground v.1.15,2014-01-21 17:00:00,
2014-01-21 10:09:00,58.3,-22.5,30.17,WNW,288,18.0,23.0,3,0.00,,,0.00,Wunderground v.1.15,2014-01-21 17:09:00,
2014-01-21 10:19:00,58.6,-29.9,30.17,WSW,248,22.0,22.0,2,0.00,,,0.00,Wunderground v.1.15,2014-01-21 17:19:00,
2014-01-21 10:29:00,59.1,-29.6,30.16,West,263,20.0,20.0,2,0.00,,,0.00,Wunderground v.1.15,2014-01-21 17:29:00,
2014-01-21 10:39:00,59.4,-29.4,30.16,WNW,288,21.0,21.0,2,0.00,,,0.00,Wunderground v.1.15,2014-01-21 17:39:00,
2014-01-21 10:49:00,60.0,-29.0,30.16,West,280,20.0,25.0,2,0.00,,,0.00,Wunderground v.1.15,2014-01-21 17:49:00,
2014-01-21 10:59:00,60.3,-28.8,30.15,WSW,256,20.0,23.0,2,0.00,,,0.00,Wunderground v.1.15,2014-01-21 17:59:00,
2014-01-21 11:09:00,60.2,-41.2,30.16,West,281,23.0,23.0,1,0.00,,,0.00,Wunderground v.1.15,2014-01-21 18:09:00,
2014-01-21 11:19:00,60.3,-41.1,30.15,West,276,25.0,25.0,1,0.00,,,0.00,Wunderground v.1.15,2014-01-21 18:19:00,
2014-01-21 11:24:00,60.3,-41.1,30.15,West,277,26.0,26.0,1,0.00,,,0.00,Wunderground v.1.15,2014-01-21 18:24:00,
2014-01-21 11:34:00,60.7,-40.9,30.14,WNW,297,23.0,34.0,1,0.00,,,0.00,Wunderground v.1.15,2014-01-21 18:34:00,
2014-01-21 11:44:00,61.2,-40.6,30.14,WNW,297,22.0,34.0,1,0.00,,,0.00,Wunderground v.1.15,2014-01-21 18:44:00,
2014-01-21 11:54:00,61.8,-40.2,30.13,NW,305,19.0,34.0,1,0.00,,,0.00,Wunderground v.1.15,2014-01-21 18:54:00,
2014-01-21 12:00:00,61.6,-40.3,30.13,WNW,284,18.0,20.0,1,0.00,,,0.00,Wunderground v.1.15,2014-01-21 19:00:00,
2014-01-21 12:10:00,61.4,-40.5,30.12,WNW,300,24.0,24.0,1,0.00,,,0.00,Wunderground v.1.15,2014-01-21 19:10:00,
2014-01-21 12:20:00,61.6,-40.3,30.12,West,280,23.0,23.0,1,0.00,,,0.00,Wunderground v.1.15,2014-01-21 19:20:00,
2014-01-21 12:30:00,61.8,-40.2,30.11,WNW,291,24.0,24.0,1,0.00,,,0.00,Wunderground v.1.15,2014-01-21 19:30:00,
2014-01-21 12:40:00,62.1,-40.0,30.10,West,281,23.0,23.0,1,0.00,,,0.00,Wunderground v.1.15,2014-01-21 19:40:00,
2014-01-21 12:50:00,61.7,-40.3,30.09,WNW,288,24.0,39.0,1,0.00,,,0.00,Wunderground v.1.15,2014-01-21 19:50:00,
2014-01-21 13:00:00,61.3,-40.5,30.09,WNW,288,28.0,31.0,1,0.00,,,0.00,Wunderground v.1.15,2014-01-21 20:00:00,
2014-01-21 13:10:00,61.3,-40.5,30.08,WNW,283,27.0,27.0,1,0.00,,,0.00,Wunderground v.1.15,2014-01-21 20:10:00,
2014-01-21 13:19:00,61.4,-40.5,30.08,WNW,287,26.0,27.0,1,0.00,,,0.00,Wunderground v.1.15,2014-01-21 20:19:00,
2014-01-21 13:25:00,61.5,-40.4,30.08,NW,312,24.0,27.0,1,0.00,,,0.00,Wunderground v.1.15,2014-01-21 20:25:00,
2014-01-21 13:35:00,61.5,-40.4,30.08,WNW,299,22.0,40.0,1,0.00,,,0.00,Wunderground v.1.15,2014-01-21 20:35:00,
2014-01-21 13:44:00,61.6,-40.3,30.07,NW,315,21.0,40.0,1,0.00,,,0.00,Wunderground v.1.15,2014-01-21 20:44:00,
2014-01-21 13:54:00,61.7,-40.3,30.07,WNW,294,22.0,26.0,1,0.00,,,0.00,Wunderground v.1.15,2014-01-21 20:54:00,
2014-01-21 13:59:00,61.6,-40.3,30.07,NW,304,22.0,27.0,1,0.00,,,0.00,Wunderground v.1.15,2014-01-21 20:59:00,
2014-01-21 14:09:00,61.7,-40.3,30.07,WNW,302,19.0,22.0,1,0.00,,,0.00,Wunderground v.1.15,2014-01-21 21:09:00,
2014-01-21 14:14:00,61.4,-28.1,30.07,NW,306,19.0,22.0,2,0.00,,,0.00,Wunderground v.1.15,2014-01-21 21:14:00,
2014-01-21 14:24:00,61.1,-20.6,30.08,NW,319,17.0,24.0,3,0.00,,,0.00,Wunderground v.1.15,2014-01-21 21:24:00,
2014-01-21 14:34:00,60.5,-28.6,30.07,NW,314,21.0,37.0,2,0.00,,,0.00,Wunderground v.1.15,2014-01-21 21:34:00,
2014-01-21 14:44:00,60.2,-28.8,30.08,WNW,302,20.0,24.0,2,0.00,,,0.00,Wunderground v.1.15,2014-01-21 21:44:00,
2014-01-21 14:54:00,60.2,-28.8,30.08,WNW,302,21.0,37.0,2,0.00,,,0.00,Wunderground v.1.15,2014-01-21 21:54:00,
2014-01-21 14:59:00,60.0,-29.0,30.08,WNW,287,22.0,22.0,2,0.00,,,0.00,Wunderground v.1.15,2014-01-21 21:59:00,
2014-01-21 15:09:00,59.5,-29.3,30.09,WNW,291,20.0,20.0,2,0.00,,,0.00,Wunderground v.1.15,2014-01-21 22:09:00,
2014-01-21 15:19:00,59.0,-22.0,30.09,WNW,298,20.0,20.0,3,0.00,,,0.00,Wunderground v.1.15,2014-01-21 22:19:00,
2014-01-21 15:29:00,58.6,-22.3,30.09,WNW,300,19.0,19.0,3,0.00,,,0.00,Wunderground v.1.15,2014-01-21 22:29:00,
2014-01-21 15:39:00,58.1,-17.1,30.09,NW,309,17.0,31.0,4,0.00,,,0.00,Wunderground v.1.15,2014-01-21 22:39:00,
2014-01-21 15:49:00,57.7,-17.4,30.09,WNW,297,14.0,14.0,4,0.00,,,0.00,Wunderground v.1.15,2014-01-21 22:49:00,
2014-01-21 16:00:00,57.2,-17.7,30.09,NW,318,14.0,14.0,4,0.00,,,0.00,Wunderground v.1.15,2014-01-21 23:00:00,
2014-01-21 16:10:00,56.1,-14.1,30.09,NW,313,9.0,9.0,5,0.00,,,0.00,Wunderground v.1.15,2014-01-21 23:10:00,
2014-01-21 16:20:00,54.3,-11.8,30.09,NNW,330,7.0,7.0,6,0.00,,,0.00,Wunderground v.1.15,2014-01-21 23:20:00,
2014-01-21 16:30:00,52.3,-10.2,30.09,NW,322,6.0,7.0,7,0.00,,,0.00,Wunderground v.1.15,2014-01-21 23:30:00,
2014-01-21 16:40:00,50.8,-11.3,30.10,NW,325,7.0,7.0,7,0.00,,,0.00,Wunderground v.1.15,2014-01-21 23:40:00,
2014-01-21 16:50:00,51.2,-11.0,30.10,WNW,302,8.0,28.0,7,0.00,,,0.00,Wunderground v.1.15,2014-01-21 23:50:00,
2014-01-21 17:00:00,48.6,-10.2,30.10,NW,322,7.0,7.0,8,0.00,,,0.00,Wunderground v.1.15,2014-01-22 00:00:00,
2014-01-21 17:10:00,46.5,-7.3,30.10,NNW,339,7.0,7.0,10,0.00,,,0.00,Wunderground v.1.15,2014-01-22 00:10:00,
2014-01-21 17:19:00,44.9,-6.6,30.10,NNW,327,8.0,9.0,11,0.00,,,0.00,Wunderground v.1.15,2014-01-22 00:19:00,
2014-01-21 17:29:00,43.5,-4.2,30.10,WNW,302,9.0,13.0,13,0.00,,,0.00,Wunderground v.1.15,2014-01-22 00:29:00,
2014-01-21 17:35:00,45.1,-4.6,30.10,NW,311,10.0,17.0,12,0.00,,,0.00,Wunderground v.1.15,2014-01-22 00:35:00,
2014-01-21 17:45:00,47.3,-4.7,30.10,NW,310,12.0,17.0,11,0.00,,,0.00,Wunderground v.1.15,2014-01-22 00:45:00,
2014-01-21 17:54:00,47.9,-4.2,30.10,NW,312,14.0,17.0,11,0.00,,,0.00,Wunderground v.1.15,2014-01-22 00:54:00,
2014-01-21 18:00:00,48.0,-4.1,30.10,NW,312,13.0,13.0,11,0.00,,,0.00,Wunderground v.1.15,2014-01-22 01:00:00,
2014-01-21 18:09:00,44.6,-1.8,30.10,NW,310,12.0,12.0,14,0.00,,,0.00,Wunderground v.1.15,2014-01-22 01:09:00,
2014-01-21 18:19:00,42.8,-1.8,30.10,NW,309,11.0,11.0,15,0.00,,,0.00,Wunderground v.1.15,2014-01-22 01:19:00,
2014-01-21 18:29:00,42.0,-1.0,30.10,NW,319,10.0,10.0,16,0.00,,,0.00,Wunderground v.1.15,2014-01-22 01:29:00,
2014-01-21 18:39:00,42.3,-2.2,30.10,NW,315,10.0,14.0,15,0.00,,,0.00,Wunderground v.1.15,2014-01-22 01:39:00,
2014-01-21 18:49:00,44.1,-2.2,30.10,NW,312,11.0,11.0,14,0.00,,,0.00,Wunderground v.1.15,2014-01-22 01:49:00,
2014-01-21 18:59:00,43.7,-2.5,30.10,NW,310,11.0,11.0,14,0.00,,,0.00,Wunderground v.1.15,2014-01-22 01:59:00,
2014-01-21 19:09:00,41.1,-1.8,30.10,NNW,347,9.0,9.0,16,0.00,,,0.00,Wunderground v.1.15,2014-01-22 02:09:00,
2014-01-21 19:19:00,40.0,-1.4,30.10,NNW,346,10.0,10.0,17,0.00,,,0.00,Wunderground v.1.15,2014-01-22 02:19:00,
2014-01-21 19:29:00,38.8,0.0,30.10,NNW,343,9.0,12.0,19,0.00,,,0.00,Wunderground v.1.15,2014-01-22 02:29:00,
2014-01-21 19:39:00,35.6,0.4,30.09,NNE,15,9.0,17.0,22,0.00,,,0.00,Wunderground v.1.15,2014-01-22 02:39:00,
2014-01-21 19:44:00,35.8,1.5,30.09,NNW,344,9.0,17.0,23,0.00,,,0.00,Wunderground v.1.15,2014-01-22 02:44:00,
2014-01-21 19:54:00,37.8,1.3,30.09,NNW,335,10.0,17.0,21,0.00,,,0.00,Wunderground v.1.15,2014-01-22 02:54:00,
2014-01-21 20:00:00,38.6,0.9,30.09,NNW,332,10.0,11.0,20,0.00,,,0.00,Wunderground v.1.15,2014-01-22 03:00:00,
2014-01-21 20:10:00,39.0,1.2,30.08,NNW,338,10.0,12.0,20,0.00,,,0.00,Wunderground v.1.15,2014-01-22 03:10:00,
2014-01-21 20:20:00,39.2,1.4,30.09,NNW,336,10.0,10.0,20,0.00,,,0.00,Wunderground v.1.15,2014-01-22 03:20:00,
2014-01-21 20:30:00,37.7,1.2,30.10,NW,305,7.0,7.0,21,0.00,,,0.00,Wunderground v.1.15,2014-01-22 03:30:00,
2014-01-21 20:40:00,38.9,1.2,30.10,WNW,292,5.0,15.0,20,0.00,,,0.00,Wunderground v.1.15,2014-01-22 03:40:00,
2014-01-21 20:50:00,40.9,1.7,30.10,NW,305,8.0,15.0,19,0.00,,,0.00,Wunderground v.1.15,2014-01-22 03:50:00,
2014-01-21 21:00:00,39.9,0.9,30.10,West,279,8.0,8.0,19,0.00,,,0.00,Wunderground v.1.15,2014-01-22 04:00:00,
2014-01-21 21:09:00,36.5,1.2,30.11,West,281,6.0,6.0,22,0.00,,,0.00,Wunderground v.1.15,2014-01-22 04:09:00,
2014-01-21 21:20:00,34.1,1.0,30.11,WNW,291,4.0,4.0,24,0.00,,,0.00,Wunderground v.1.15,2014-01-22 04:20:00,
2014-01-21 21:29:00,34.0,0.0,30.11,WNW,288,3.0,3.0,23,0.00,,,0.00,Wunderground v.1.15,2014-01-22 04:29:00,
2014-01-21 21:39:00,33.2,4.3,30.12,SW,216,3.0,14.0,29,0.00,,,0.00,Wunderground v.1.15,2014-01-22 04:39:00,
2014-01-21 21:50:00,32.1,6.2,30.12,North,4,2.0,14.0,33,0.00,,,0.00,Wunderground v.1.15,2014-01-22 04:50:00,
2014-01-21 22:00:00,34.2,7.4,30.13,SW,217,2.0,3.0,32,0.00,,,0.00,Wunderground v.1.15,2014-01-22 05:00:00,
2014-01-21 22:04:00,34.5,7.6,30.13,West,264,3.0,3.0,32,0.00,,,0.00,Wunderground v.1.15,2014-01-22 05:04:00,
2014-01-21 22:09:00,34.2,7.4,30.13,SW,225,2.0,3.0,32,0.00,,,0.00,Wunderground v.1.15,2014-01-22 05:09:00,
2014-01-21 22:19:00,33.4,8.6,30.12,SW,235,6.0,6.0,35,0.00,,,0.00,Wunderground v.1.15,2014-01-22 05:19:00,
2014-01-21 22:29:00,33.3,8.6,30.13,SW,232,6.0,6.0,35,0.00,,,0.00,Wunderground v.1.15,2014-01-22 05:29:00,
2014-01-21 22:39:00,32.5,9.1,30.13,WSW,251,6.0,8.0,37,0.00,,,0.00,Wunderground v.1.15,2014-01-22 05:39:00,
2014-01-21 22:44:00,32.6,8.6,30.13,West,260,5.0,8.0,36,0.00,,,0.00,Wunderground v.1.15,2014-01-22 05:44:00,
2014-01-21 22:54:00,31.7,9.0,30.13,WSW,241,6.0,8.0,38,0.00,,,0.00,Wunderground v.1.15,2014-01-22 05:54:00,
2014-01-21 22:59:00,32.1,9.3,30.13,WSW,246,7.0,9.0,38,0.00,,,0.00,Wunderground v.1.15,2014-01-22 05:59:00,
2014-01-21 23:09:00,32.7,8.6,30.13,West,259,7.0,7.0,36,0.00,,,0.00,Wunderground v.1.15,2014-01-22 06:09:00,
2014-01-21 23:19:00,31.7,8.4,30.13,West,262,5.0,5.0,37,0.00,,,0.00,Wunderground v.1.15,2014-01-22 06:19:00,
2014-01-21 23:29:00,31.5,8.8,30.13,WSW,255,6.0,7.0,38,0.00,,,0.00,Wunderground v.1.15,2014-01-22 06:29:00,
2014-01-21 23:39:00,31.3,9.2,30.13,WSW,246,6.0,10.0,39,0.00,,,0.00,Wunderground v.1.15,2014-01-22 06:39:00,
2014-01-21 23:49:00,31.8,9.0,30.12,WSW,246,7.0,7.0,38,0.00,,,0.00,Wunderground v.1.15,2014-01-22 06:49:00,
2014-01-21 23:54:00,31.6,9.4,30.13,WSW,251,7.0,10.0,39,0.00,,,0.00,Wunderground v.1.15,2014-01-22 06:54:00,